sensor_id;sensor_type;location;lat;lon;timestamp;P1;durP1;ratioP1;P2;durP2;ratioP2
58466;SDS011;44255;49.244;7.726;2023-02-01T04:31:01;15.20;;;7.25;;
58466;SDS011;44255;49.244;7.726;2023-02-01T04:33:27;25.40;;;10.30;;
58466;SDS011;44255;49.244;7.726;2023-02-01T04:35:52;19.08;;;8.45;;
58466;SDS011;44255;49.244;7.726;2023-02-01T04:38:17;24.38;;;11.70;;
58466;SDS011;44255;49.244;7.726;2023-02-01T04:40:43;20.00;;;9.95;;
58466;SDS011;44255;49.244;7.726;2023-02-01T04:43:08;20.35;;;9.70;;
58466;SDS011;44255;49.244;7.726;2023-02-01T04:45:33;17.88;;;9.98;;
58466;SDS011;44255;49.244;7.726;2023-02-01T04:47:59;30.73;;;12.60;;
58466;SDS011;44255;49.244;7.726;2023-02-01T04:50:24;17.63;;;8.00;;
58466;SDS011;44255;49.244;7.726;2023-02-01T04:52:49;21.50;;;9.18;;
58466;SDS011;44255;49.244;7.726;2023-02-01T04:55:15;15.37;;;8.17;;
58466;SDS011;44255;49.244;7.726;2023-02-01T04:57:40;13.82;;;7.85;;
58466;SDS011;44255;49.244;7.726;2023-02-01T05:00:06;17.40;;;8.18;;
58466;SDS011;44255;49.244;7.726;2023-02-01T05:02:33;16.60;;;8.50;;
58466;SDS011;44255;49.244;7.726;2023-02-01T05:04:59;17.52;;;7.82;;
58466;SDS011;44255;49.244;7.726;2023-02-01T05:07:25;21.13;;;9.05;;
58466;SDS011;44255;49.244;7.726;2023-02-01T05:09:50;17.90;;;8.73;;
58466;SDS011;44255;49.244;7.726;2023-02-01T05:12:16;18.15;;;7.60;;
58466;SDS011;44255;49.244;7.726;2023-02-01T05:15:00;21.17;;;8.07;;
58466;SDS011;44255;49.244;7.726;2023-02-01T05:17:25;20.10;;;8.40;;
58466;SDS011;44255;49.244;7.726;2023-02-01T05:19:50;17.13;;;8.25;;
58466;SDS011;44255;49.244;7.726;2023-02-01T05:22:15;20.02;;;8.10;;
58466;SDS011;44255;49.244;7.726;2023-02-01T05:24:41;13.93;;;6.88;;
58466;SDS011;44255;49.244;7.726;2023-02-01T05:27:06;12.37;;;6.07;;
58466;SDS011;44255;49.244;7.726;2023-02-01T05:29:31;11.60;;;5.93;;
58466;SDS011;44255;49.244;7.726;2023-02-01T05:31:56;13.87;;;6.60;;
58466;SDS011;44255;49.244;7.726;2023-02-01T05:34:21;11.38;;;6.28;;
58466;SDS011;44255;49.244;7.726;2023-02-01T05:36:47;11.40;;;6.47;;
58466;SDS011;44255;49.244;7.726;2023-02-01T05:39:12;11.35;;;5.55;;
58466;SDS011;44255;49.244;7.726;2023-02-01T05:41:37;8.70;;;5.82;;
58466;SDS011;44255;49.244;7.726;2023-02-01T05:44:03;10.48;;;5.55;;
58466;SDS011;44255;49.244;7.726;2023-02-01T05:46:28;8.18;;;4.85;;
58466;SDS011;44255;49.244;7.726;2023-02-01T05:48:53;11.90;;;6.67;;
58466;SDS011;44255;49.244;7.726;2023-02-01T05:51:19;9.95;;;5.53;;
58466;SDS011;44255;49.244;7.726;2023-02-01T05:53:44;12.38;;;6.68;;
58466;SDS011;44255;49.244;7.726;2023-02-01T05:56:09;13.05;;;6.10;;
58466;SDS011;44255;49.244;7.726;2023-02-01T05:58:35;11.43;;;6.68;;
58466;SDS011;44255;49.244;7.726;2023-02-01T06:01:00;16.92;;;6.93;;
58466;SDS011;44255;49.244;7.726;2023-02-01T06:03:27;13.52;;;7.22;;
58466;SDS011;44255;49.244;7.726;2023-02-01T06:05:52;16.08;;;8.70;;
58466;SDS011;44255;49.244;7.726;2023-02-01T06:08:18;20.13;;;7.80;;
58466;SDS011;44255;49.244;7.726;2023-02-01T06:10:43;17.77;;;7.77;;
58466;SDS011;44255;49.244;7.726;2023-02-01T06:13:08;20.90;;;9.27;;
58466;SDS011;44255;49.244;7.726;2023-02-01T06:15:34;21.27;;;8.32;;
58466;SDS011;44255;49.244;7.726;2023-02-01T06:18:00;21.50;;;8.05;;
58466;SDS011;44255;49.244;7.726;2023-02-01T06:20:25;21.27;;;8.10;;
58466;SDS011;44255;49.244;7.726;2023-02-01T06:22:50;17.40;;;8.60;;
58466;SDS011;44255;49.244;7.726;2023-02-01T06:25:17;16.25;;;8.75;;
58466;SDS011;44255;49.244;7.726;2023-02-01T06:27:43;19.17;;;8.38;;
58466;SDS011;44255;49.244;7.726;2023-02-01T06:30:10;18.92;;;8.18;;
58466;SDS011;44255;49.244;7.726;2023-02-01T06:32:38;18.60;;;7.25;;
58466;SDS011;44255;49.244;7.726;2023-02-01T06:35:05;19.45;;;8.88;;
58466;SDS011;44255;49.244;7.726;2023-02-01T06:37:32;18.02;;;7.50;;
58466;SDS011;44255;49.244;7.726;2023-02-01T06:42:24;18.42;;;7.47;;
58466;SDS011;44255;49.244;7.726;2023-02-01T06:44:50;16.73;;;7.78;;
58466;SDS011;44255;49.244;7.726;2023-02-01T06:47:15;17.67;;;7.77;;
58466;SDS011;44255;49.244;7.726;2023-02-01T06:49:40;12.67;;;6.57;;
58466;SDS011;44255;49.244;7.726;2023-02-01T06:52:06;17.20;;;6.97;;
58466;SDS011;44255;49.244;7.726;2023-02-01T06:54:31;14.75;;;5.90;;
58466;SDS011;44255;49.244;7.726;2023-02-01T06:56:58;14.88;;;5.90;;
58466;SDS011;44255;49.244;7.726;2023-02-01T06:59:23;16.92;;;6.28;;
58466;SDS011;44255;49.244;7.726;2023-02-01T07:01:49;9.80;;;5.40;;
58466;SDS011;44255;49.244;7.726;2023-02-01T07:04:14;13.18;;;5.80;;
58466;SDS011;44255;49.244;7.726;2023-02-01T07:06:39;8.82;;;5.25;;
58466;SDS011;44255;49.244;7.726;2023-02-01T07:09:05;13.95;;;6.22;;
58466;SDS011;44255;49.244;7.726;2023-02-01T07:11:32;16.85;;;6.90;;
58466;SDS011;44255;49.244;7.726;2023-02-01T07:13:57;12.77;;;5.67;;
58466;SDS011;44255;49.244;7.726;2023-02-01T07:16:23;20.27;;;6.80;;
58466;SDS011;44255;49.244;7.726;2023-02-01T07:18:49;19.73;;;6.57;;
58466;SDS011;44255;49.244;7.726;2023-02-01T07:21:15;13.98;;;6.35;;
58466;SDS011;44255;49.244;7.726;2023-02-01T07:23:41;15.88;;;6.45;;
58466;SDS011;44255;49.244;7.726;2023-02-01T07:26:07;14.45;;;6.50;;
58466;SDS011;44255;49.244;7.726;2023-02-01T07:28:35;20.55;;;7.75;;
58466;SDS011;44255;49.244;7.726;2023-02-01T07:31:02;19.23;;;6.88;;
58466;SDS011;44255;49.244;7.726;2023-02-01T07:33:28;18.60;;;7.05;;
58466;SDS011;44255;49.244;7.726;2023-02-01T07:35:53;16.27;;;6.40;;
58466;SDS011;44255;49.244;7.726;2023-02-01T07:38:19;18.05;;;6.82;;
58466;SDS011;44255;49.244;7.726;2023-02-01T07:40:46;17.10;;;6.47;;
58466;SDS011;44255;49.244;7.726;2023-02-01T07:43:12;22.50;;;6.70;;
58466;SDS011;44255;49.244;7.726;2023-02-01T07:45:37;20.17;;;6.93;;
58466;SDS011;44255;49.244;7.726;2023-02-01T07:48:02;20.35;;;7.75;;
58466;SDS011;44255;49.244;7.726;2023-02-01T07:50:28;15.32;;;6.55;;
58466;SDS011;44255;49.244;7.726;2023-02-01T07:55:20;16.80;;;6.43;;
58466;SDS011;44255;49.244;7.726;2023-02-01T08:00:11;17.77;;;6.75;;
58466;SDS011;44255;49.244;7.726;2023-02-01T08:02:59;15.25;;;5.85;;
58466;SDS011;44255;49.244;7.726;2023-02-01T08:05:25;16.00;;;6.38;;
58466;SDS011;44255;49.244;7.726;2023-02-01T08:07:50;18.83;;;5.88;;
58466;SDS011;44255;49.244;7.726;2023-02-01T08:10:16;20.55;;;6.63;;
58466;SDS011;44255;49.244;7.726;2023-02-01T08:12:43;21.15;;;6.88;;
58466;SDS011;44255;49.244;7.726;2023-02-01T08:15:12;18.58;;;6.53;;
58466;SDS011;44255;49.244;7.726;2023-02-01T08:17:38;19.60;;;7.20;;
58466;SDS011;44255;49.244;7.726;2023-02-01T08:20:03;16.92;;;5.80;;
58466;SDS011;44255;49.244;7.726;2023-02-01T08:22:31;19.60;;;5.85;;
58466;SDS011;44255;49.244;7.726;2023-02-01T08:24:57;12.02;;;5.95;;
58466;SDS011;44255;49.244;7.726;2023-02-01T08:27:26;18.42;;;5.65;;
58466;SDS011;44255;49.244;7.726;2023-02-01T08:29:51;15.55;;;5.40;;
58466;SDS011;44255;49.244;7.726;2023-02-01T08:32:18;13.13;;;5.10;;
58466;SDS011;44255;49.244;7.726;2023-02-01T08:34:43;18.53;;;6.23;;
58466;SDS011;44255;49.244;7.726;2023-02-01T08:37:08;22.98;;;5.32;;
58466;SDS011;44255;49.244;7.726;2023-02-01T08:39:34;21.42;;;5.60;;
58466;SDS011;44255;49.244;7.726;2023-02-01T08:42:01;19.08;;;4.97;;
58466;SDS011;44255;49.244;7.726;2023-02-01T08:44:45;16.85;;;4.78;;
58466;SDS011;44255;49.244;7.726;2023-02-01T08:47:10;14.60;;;4.93;;
58466;SDS011;44255;49.244;7.726;2023-02-01T08:49:36;19.40;;;4.72;;
58466;SDS011;44255;49.244;7.726;2023-02-01T08:52:02;14.93;;;4.97;;
58466;SDS011;44255;49.244;7.726;2023-02-01T08:54:27;16.75;;;4.13;;
58466;SDS011;44255;49.244;7.726;2023-02-01T08:56:52;11.37;;;4.27;;
58466;SDS011;44255;49.244;7.726;2023-02-01T08:59:19;18.85;;;4.43;;
58466;SDS011;44255;49.244;7.726;2023-02-01T09:01:44;14.77;;;4.18;;
58466;SDS011;44255;49.244;7.726;2023-02-01T09:04:09;13.27;;;4.20;;
58466;SDS011;44255;49.244;7.726;2023-02-01T09:06:35;25.27;;;5.37;;
58466;SDS011;44255;49.244;7.726;2023-02-01T09:09:00;19.50;;;4.80;;
58466;SDS011;44255;49.244;7.726;2023-02-01T09:11:25;16.13;;;3.83;;
58466;SDS011;44255;49.244;7.726;2023-02-01T09:13:51;21.60;;;4.25;;
58466;SDS011;44255;49.244;7.726;2023-02-01T09:16:17;19.10;;;3.80;;
58466;SDS011;44255;49.244;7.726;2023-02-01T09:18:42;12.50;;;4.03;;
58466;SDS011;44255;49.244;7.726;2023-02-01T09:21:08;15.85;;;3.90;;
58466;SDS011;44255;49.244;7.726;2023-02-01T09:23:33;19.48;;;4.63;;
58466;SDS011;44255;49.244;7.726;2023-02-01T09:26:02;21.00;;;3.80;;
58466;SDS011;44255;49.244;7.726;2023-02-01T09:28:29;20.48;;;4.50;;
58466;SDS011;44255;49.244;7.726;2023-02-01T09:30:56;15.55;;;5.15;;
58466;SDS011;44255;49.244;7.726;2023-02-01T09:33:24;19.42;;;3.75;;
58466;SDS011;44255;49.244;7.726;2023-02-01T09:35:57;16.60;;;4.10;;
58466;SDS011;44255;49.244;7.726;2023-02-01T09:38:24;18.50;;;3.80;;
58466;SDS011;44255;49.244;7.726;2023-02-01T09:40:50;15.15;;;3.50;;
58466;SDS011;44255;49.244;7.726;2023-02-01T09:43:18;22.30;;;5.00;;
58466;SDS011;44255;49.244;7.726;2023-02-01T09:48:21;22.20;;;5.07;;
58466;SDS011;44255;49.244;7.726;2023-02-01T09:50:54;16.88;;;4.22;;
58466;SDS011;44255;49.244;7.726;2023-02-01T09:53:23;16.88;;;4.05;;
58466;SDS011;44255;49.244;7.726;2023-02-01T09:55:55;14.77;;;3.97;;
58466;SDS011;44255;49.244;7.726;2023-02-01T10:00:57;19.30;;;4.50;;
58466;SDS011;44255;49.244;7.726;2023-02-01T10:03:24;15.77;;;4.22;;
58466;SDS011;44255;49.244;7.726;2023-02-01T10:06:06;18.38;;;3.45;;
58466;SDS011;44255;49.244;7.726;2023-02-01T10:12:15;17.38;;;3.60;;
58466;SDS011;44255;49.244;7.726;2023-02-01T10:23:25;16.80;;;4.13;;
58466;SDS011;44255;49.244;7.726;2023-02-01T10:26:22;15.23;;;3.40;;
58466;SDS011;44255;49.244;7.726;2023-02-01T10:28:50;23.42;;;5.63;;
58466;SDS011;44255;49.244;7.726;2023-02-01T10:31:27;17.33;;;3.92;;
58466;SDS011;44255;49.244;7.726;2023-02-01T10:33:56;16.30;;;3.33;;
58466;SDS011;44255;49.244;7.726;2023-02-01T10:36:29;17.67;;;3.70;;
58466;SDS011;44255;49.244;7.726;2023-02-01T10:39:00;16.63;;;4.43;;
58466;SDS011;44255;49.244;7.726;2023-02-01T10:41:31;10.05;;;3.15;;
58466;SDS011;44255;49.244;7.726;2023-02-01T10:44:03;17.13;;;4.28;;
58466;SDS011;44255;49.244;7.726;2023-02-01T10:46:33;14.70;;;3.85;;
58466;SDS011;44255;49.244;7.726;2023-02-01T10:51:28;13.75;;;3.90;;
58466;SDS011;44255;49.244;7.726;2023-02-01T10:54:03;14.23;;;3.53;;
58466;SDS011;44255;49.244;7.726;2023-02-01T10:56:37;13.20;;;3.05;;
58466;SDS011;44255;49.244;7.726;2023-02-01T10:59:13;18.13;;;3.22;;
58466;SDS011;44255;49.244;7.726;2023-02-01T11:01:41;21.35;;;3.92;;
58466;SDS011;44255;49.244;7.726;2023-02-01T11:04:10;17.42;;;4.68;;
58466;SDS011;44255;49.244;7.726;2023-02-01T11:06:45;16.30;;;3.88;;
58466;SDS011;44255;49.244;7.726;2023-02-01T11:09:22;14.35;;;3.53;;
58466;SDS011;44255;49.244;7.726;2023-02-01T11:16:43;18.45;;;3.28;;
58466;SDS011;44255;49.244;7.726;2023-02-01T11:19:14;22.20;;;4.43;;
58466;SDS011;44255;49.244;7.726;2023-02-01T11:21:41;16.35;;;3.28;;
58466;SDS011;44255;49.244;7.726;2023-02-01T11:24:11;19.00;;;3.88;;
58466;SDS011;44255;49.244;7.726;2023-02-01T11:26:47;14.48;;;3.08;;
58466;SDS011;44255;49.244;7.726;2023-02-01T11:29:13;13.00;;;2.92;;
58466;SDS011;44255;49.244;7.726;2023-02-01T11:31:42;15.38;;;2.97;;
58466;SDS011;44255;49.244;7.726;2023-02-01T11:34:12;13.77;;;2.65;;
58466;SDS011;44255;49.244;7.726;2023-02-01T11:36:45;15.77;;;3.45;;
58466;SDS011;44255;49.244;7.726;2023-02-01T11:44:21;19.38;;;3.40;;
58466;SDS011;44255;49.244;7.726;2023-02-01T11:46:52;14.27;;;3.20;;
58466;SDS011;44255;49.244;7.726;2023-02-01T11:51:52;16.67;;;3.80;;
58466;SDS011;44255;49.244;7.726;2023-02-01T11:54:30;15.95;;;3.00;;
58466;SDS011;44255;49.244;7.726;2023-02-01T11:57:13;16.67;;;4.25;;
58466;SDS011;44255;49.244;7.726;2023-02-01T12:00:02;14.75;;;2.75;;
58466;SDS011;44255;49.244;7.726;2023-02-01T12:05:35;12.38;;;3.03;;
58466;SDS011;44255;49.244;7.726;2023-02-01T12:16:59;18.05;;;3.13;;
58466;SDS011;44255;49.244;7.726;2023-02-01T12:20:11;8.63;;;2.33;;
58466;SDS011;44255;49.244;7.726;2023-02-01T12:23:02;18.67;;;3.38;;
58466;SDS011;44255;49.244;7.726;2023-02-01T12:28:34;9.95;;;2.47;;
58466;SDS011;44255;49.244;7.726;2023-02-01T12:36:44;15.30;;;2.88;;
58466;SDS011;44255;49.244;7.726;2023-02-01T12:39:22;11.23;;;2.50;;
58466;SDS011;44255;49.244;7.726;2023-02-01T12:41:51;18.58;;;3.63;;
58466;SDS011;44255;49.244;7.726;2023-02-01T12:44:26;14.60;;;2.47;;
58466;SDS011;44255;49.244;7.726;2023-02-01T12:47:14;19.67;;;2.72;;
58466;SDS011;44255;49.244;7.726;2023-02-01T12:52:28;8.20;;;2.38;;
58466;SDS011;44255;49.244;7.726;2023-02-01T12:55:02;11.98;;;2.95;;
58466;SDS011;44255;49.244;7.726;2023-02-01T12:57:37;11.18;;;2.13;;
58466;SDS011;44255;49.244;7.726;2023-02-01T13:05:21;16.42;;;3.95;;
58466;SDS011;44255;49.244;7.726;2023-02-01T13:07:59;16.15;;;3.45;;
58466;SDS011;44255;49.244;7.726;2023-02-01T13:10:38;18.58;;;3.13;;
58466;SDS011;44255;49.244;7.726;2023-02-01T13:16:12;12.82;;;2.17;;
58466;SDS011;44255;49.244;7.726;2023-02-01T13:18:41;10.25;;;3.13;;
58466;SDS011;44255;49.244;7.726;2023-02-01T13:21:18;13.57;;;2.90;;
58466;SDS011;44255;49.244;7.726;2023-02-01T13:23:55;16.05;;;3.53;;
58466;SDS011;44255;49.244;7.726;2023-02-01T13:26:20;11.20;;;2.10;;
58466;SDS011;44255;49.244;7.726;2023-02-01T13:28:49;16.63;;;3.07;;
58466;SDS011;44255;49.244;7.726;2023-02-01T13:34:37;11.02;;;2.45;;
58466;SDS011;44255;49.244;7.726;2023-02-01T13:43:10;9.15;;;2.78;;
58466;SDS011;44255;49.244;7.726;2023-02-01T13:45:46;13.90;;;2.67;;
58466;SDS011;44255;49.244;7.726;2023-02-01T13:48:28;12.52;;;2.50;;
58466;SDS011;44255;49.244;7.726;2023-02-01T13:50:58;13.70;;;3.10;;
58466;SDS011;44255;49.244;7.726;2023-02-01T13:53:31;15.40;;;3.63;;
58466;SDS011;44255;49.244;7.726;2023-02-01T13:58:38;12.88;;;2.30;;
58466;SDS011;44255;49.244;7.726;2023-02-01T14:03:58;18.00;;;2.60;;
58466;SDS011;44255;49.244;7.726;2023-02-01T14:16:38;12.98;;;2.20;;
58466;SDS011;44255;49.244;7.726;2023-02-01T14:19:06;11.07;;;2.97;;
58466;SDS011;44255;49.244;7.726;2023-02-01T14:21:34;17.45;;;2.88;;
58466;SDS011;44255;49.244;7.726;2023-02-01T14:24:27;16.48;;;3.05;;
58466;SDS011;44255;49.244;7.726;2023-02-01T14:26:56;15.88;;;3.10;;
58466;SDS011;44255;49.244;7.726;2023-02-01T14:29:25;12.30;;;3.67;;
58466;SDS011;44255;49.244;7.726;2023-02-01T14:42:17;18.60;;;3.58;;
58466;SDS011;44255;49.244;7.726;2023-02-01T14:58:30;11.93;;;2.67;;
58466;SDS011;44255;49.244;7.726;2023-02-01T15:04:08;18.83;;;3.50;;
58466;SDS011;44255;49.244;7.726;2023-02-01T15:14:44;21.55;;;6.00;;
58466;SDS011;44255;49.244;7.726;2023-02-01T15:19:52;14.32;;;3.92;;
58466;SDS011;44255;49.244;7.726;2023-02-01T15:22:38;16.08;;;3.28;;
58466;SDS011;44255;49.244;7.726;2023-02-01T15:25:04;21.40;;;4.38;;
58466;SDS011;44255;49.244;7.726;2023-02-01T15:27:29;12.00;;;2.42;;
58466;SDS011;44255;49.244;7.726;2023-02-01T15:30:30;15.20;;;2.97;;
58466;SDS011;44255;49.244;7.726;2023-02-01T15:33:03;12.60;;;2.08;;
58466;SDS011;44255;49.244;7.726;2023-02-01T15:40:54;9.60;;;2.10;;
58466;SDS011;44255;49.244;7.726;2023-02-01T15:43:22;12.32;;;2.30;;
58466;SDS011;44255;49.244;7.726;2023-02-01T15:45:49;12.50;;;3.03;;
58466;SDS011;44255;49.244;7.726;2023-02-01T15:48:20;13.02;;;3.00;;
58466;SDS011;44255;49.244;7.726;2023-02-01T15:50:48;11.82;;;2.70;;
58466;SDS011;44255;49.244;7.726;2023-02-01T15:53:19;13.32;;;3.05;;
58466;SDS011;44255;49.244;7.726;2023-02-01T15:55:46;16.70;;;3.40;;
58466;SDS011;44255;49.244;7.726;2023-02-01T15:58:17;13.27;;;3.58;;
58466;SDS011;44255;49.244;7.726;2023-02-01T16:00:46;14.40;;;3.05;;
58466;SDS011;44255;49.244;7.726;2023-02-01T16:06:26;19.42;;;4.60;;
58466;SDS011;44255;49.244;7.726;2023-02-01T16:09:02;14.57;;;3.50;;
58466;SDS011;44255;49.244;7.726;2023-02-01T16:11:39;11.40;;;3.00;;
58466;SDS011;44255;49.244;7.726;2023-02-01T16:14:11;18.92;;;4.18;;
58466;SDS011;44255;49.244;7.726;2023-02-01T16:16:36;15.68;;;3.58;;
58466;SDS011;44255;49.244;7.726;2023-02-01T16:19:02;12.70;;;3.92;;
58466;SDS011;44255;49.244;7.726;2023-02-01T16:21:27;11.50;;;3.53;;
58466;SDS011;44255;49.244;7.726;2023-02-01T16:23:52;15.43;;;3.50;;
58466;SDS011;44255;49.244;7.726;2023-02-01T16:26:18;12.63;;;3.58;;
58466;SDS011;44255;49.244;7.726;2023-02-01T16:31:11;14.43;;;2.90;;
58466;SDS011;44255;49.244;7.726;2023-02-01T16:33:44;17.35;;;3.33;;
58466;SDS011;44255;49.244;7.726;2023-02-01T16:36:15;13.93;;;3.25;;
58466;SDS011;44255;49.244;7.726;2023-02-01T16:38:42;14.93;;;3.03;;
58466;SDS011;44255;49.244;7.726;2023-02-01T16:41:09;11.18;;;3.30;;
58466;SDS011;44255;49.244;7.726;2023-02-01T16:43:37;13.93;;;3.08;;
58466;SDS011;44255;49.244;7.726;2023-02-01T16:46:03;9.18;;;2.45;;
58466;SDS011;44255;49.244;7.726;2023-02-01T16:48:30;12.18;;;2.97;;
58466;SDS011;44255;49.244;7.726;2023-02-01T16:51:00;19.42;;;3.38;;
58466;SDS011;44255;49.244;7.726;2023-02-01T16:53:27;19.70;;;6.47;;
58466;SDS011;44255;49.244;7.726;2023-02-01T16:55:55;19.45;;;4.93;;
58466;SDS011;44255;49.244;7.726;2023-02-01T16:58:22;17.17;;;4.50;;
58466;SDS011;44255;49.244;7.726;2023-02-01T17:00:49;19.00;;;3.90;;
58466;SDS011;44255;49.244;7.726;2023-02-01T17:03:15;18.55;;;3.75;;
58466;SDS011;44255;49.244;7.726;2023-02-01T17:05:52;17.42;;;4.28;;
58466;SDS011;44255;49.244;7.726;2023-02-01T17:08:22;18.35;;;3.53;;
58466;SDS011;44255;49.244;7.726;2023-02-01T17:10:53;13.50;;;4.53;;
58466;SDS011;44255;49.244;7.726;2023-02-01T17:13:18;11.33;;;2.97;;
58466;SDS011;44255;49.244;7.726;2023-02-01T17:15:51;13.10;;;2.63;;
58466;SDS011;44255;49.244;7.726;2023-02-01T17:18:24;11.15;;;3.25;;
58466;SDS011;44255;49.244;7.726;2023-02-01T17:20:55;11.25;;;2.90;;
58466;SDS011;44255;49.244;7.726;2023-02-01T17:23:21;15.13;;;3.50;;
58466;SDS011;44255;49.244;7.726;2023-02-01T17:25:46;9.13;;;3.00;;
58466;SDS011;44255;49.244;7.726;2023-02-01T17:28:12;12.93;;;3.90;;
58466;SDS011;44255;49.244;7.726;2023-02-01T17:30:38;10.70;;;2.08;;
58466;SDS011;44255;49.244;7.726;2023-02-01T17:33:03;14.30;;;2.75;;
58466;SDS011;44255;49.244;7.726;2023-02-01T17:35:38;12.55;;;2.35;;
58466;SDS011;44255;49.244;7.726;2023-02-01T17:38:05;14.93;;;3.90;;
58466;SDS011;44255;49.244;7.726;2023-02-01T17:40:35;11.43;;;2.25;;
58466;SDS011;44255;49.244;7.726;2023-02-01T17:43:00;15.87;;;3.93;;
58466;SDS011;44255;49.244;7.726;2023-02-01T17:45:33;13.67;;;2.83;;
58466;SDS011;44255;49.244;7.726;2023-02-01T17:48:01;7.57;;;2.47;;
58466;SDS011;44255;49.244;7.726;2023-02-01T17:50:28;17.42;;;2.97;;
58466;SDS011;44255;49.244;7.726;2023-02-01T17:52:55;21.23;;;4.80;;
58466;SDS011;44255;49.244;7.726;2023-02-01T17:55:21;17.53;;;4.13;;
58466;SDS011;44255;49.244;7.726;2023-02-01T17:57:49;11.25;;;3.90;;
58466;SDS011;44255;49.244;7.726;2023-02-01T18:00:15;13.23;;;3.05;;
58466;SDS011;44255;49.244;7.726;2023-02-01T18:02:41;12.15;;;3.25;;
58466;SDS011;44255;49.244;7.726;2023-02-01T18:05:14;17.17;;;3.47;;
58466;SDS011;44255;49.244;7.726;2023-02-01T18:07:40;14.52;;;2.95;;
58466;SDS011;44255;49.244;7.726;2023-02-01T18:10:09;16.25;;;3.22;;
58466;SDS011;44255;49.244;7.726;2023-02-01T18:12:35;23.77;;;5.00;;
58466;SDS011;44255;49.244;7.726;2023-02-01T18:15:00;11.02;;;2.33;;
58466;SDS011;44255;49.244;7.726;2023-02-01T18:17:26;21.70;;;4.13;;
58466;SDS011;44255;49.244;7.726;2023-02-01T18:19:51;12.43;;;3.03;;
58466;SDS011;44255;49.244;7.726;2023-02-01T18:22:18;13.02;;;2.88;;
58466;SDS011;44255;49.244;7.726;2023-02-01T18:24:47;16.90;;;4.20;;
58466;SDS011;44255;49.244;7.726;2023-02-01T18:27:13;11.13;;;2.93;;
58466;SDS011;44255;49.244;7.726;2023-02-01T18:29:38;14.20;;;2.70;;
58466;SDS011;44255;49.244;7.726;2023-02-01T18:32:03;18.17;;;3.97;;
58466;SDS011;44255;49.244;7.726;2023-02-01T18:34:28;14.57;;;3.67;;
58466;SDS011;44255;49.244;7.726;2023-02-01T18:36:54;13.10;;;2.97;;
58466;SDS011;44255;49.244;7.726;2023-02-01T18:39:19;12.00;;;3.08;;
58466;SDS011;44255;49.244;7.726;2023-02-01T18:41:44;22.08;;;4.57;;
58466;SDS011;44255;49.244;7.726;2023-02-01T18:44:15;18.98;;;5.30;;
58466;SDS011;44255;49.244;7.726;2023-02-01T18:46:41;16.75;;;5.43;;
58466;SDS011;44255;49.244;7.726;2023-02-01T18:49:07;18.85;;;3.42;;
58466;SDS011;44255;49.244;7.726;2023-02-01T18:51:33;18.55;;;3.95;;
58466;SDS011;44255;49.244;7.726;2023-02-01T18:53:58;19.45;;;4.13;;
58466;SDS011;44255;49.244;7.726;2023-02-01T18:56:23;18.23;;;4.38;;
58466;SDS011;44255;49.244;7.726;2023-02-01T18:58:49;16.83;;;5.03;;
58466;SDS011;44255;49.244;7.726;2023-02-01T19:01:16;16.60;;;3.53;;
58466;SDS011;44255;49.244;7.726;2023-02-01T19:03:43;12.70;;;3.97;;
58466;SDS011;44255;49.244;7.726;2023-02-01T19:06:08;13.67;;;3.43;;
58466;SDS011;44255;49.244;7.726;2023-02-01T19:08:36;25.30;;;4.95;;
58466;SDS011;44255;49.244;7.726;2023-02-01T19:11:08;18.50;;;4.47;;
58466;SDS011;44255;49.244;7.726;2023-02-01T19:13:34;16.30;;;3.70;;
58466;SDS011;44255;49.244;7.726;2023-02-01T19:16:10;15.57;;;3.05;;
58466;SDS011;44255;49.244;7.726;2023-02-01T19:18:37;14.10;;;3.28;;
58466;SDS011;44255;49.244;7.726;2023-02-01T19:21:03;18.42;;;3.75;;
58466;SDS011;44255;49.244;7.726;2023-02-01T19:23:30;17.58;;;3.30;;
58466;SDS011;44255;49.244;7.726;2023-02-01T19:25:55;21.40;;;3.97;;
58466;SDS011;44255;49.244;7.726;2023-02-01T19:28:24;13.10;;;2.90;;
58466;SDS011;44255;49.244;7.726;2023-02-01T19:30:49;18.40;;;3.60;;
58466;SDS011;44255;49.244;7.726;2023-02-01T19:33:15;22.08;;;4.15;;
58466;SDS011;44255;49.244;7.726;2023-02-01T19:35:41;21.40;;;4.78;;
58466;SDS011;44255;49.244;7.726;2023-02-01T19:38:06;20.75;;;4.82;;
58466;SDS011;44255;49.244;7.726;2023-02-01T19:40:31;16.70;;;4.05;;
58466;SDS011;44255;49.244;7.726;2023-02-01T19:42:57;15.63;;;3.40;;
58466;SDS011;44255;49.244;7.726;2023-02-01T19:45:22;15.30;;;3.37;;
58466;SDS011;44255;49.244;7.726;2023-02-01T19:47:47;18.08;;;3.80;;
58466;SDS011;44255;49.244;7.726;2023-02-01T19:50:17;13.20;;;3.83;;
58466;SDS011;44255;49.244;7.726;2023-02-01T19:52:44;17.60;;;3.35;;
58466;SDS011;44255;49.244;7.726;2023-02-01T19:55:11;17.70;;;3.50;;
58466;SDS011;44255;49.244;7.726;2023-02-01T19:57:37;22.27;;;4.22;;
58466;SDS011;44255;49.244;7.726;2023-02-01T20:00:03;18.67;;;4.18;;
58466;SDS011;44255;49.244;7.726;2023-02-01T20:02:30;13.07;;;3.03;;
58466;SDS011;44255;49.244;7.726;2023-02-01T20:04:55;17.92;;;3.50;;
58466;SDS011;44255;49.244;7.726;2023-02-01T20:07:21;15.95;;;3.28;;
58466;SDS011;44255;49.244;7.726;2023-02-01T20:09:47;17.60;;;3.92;;
58466;SDS011;44255;49.244;7.726;2023-02-01T20:12:12;15.50;;;3.72;;
58466;SDS011;44255;49.244;7.726;2023-02-01T20:14:38;11.75;;;3.13;;
58466;SDS011;44255;49.244;7.726;2023-02-01T20:17:04;18.38;;;3.80;;
58466;SDS011;44255;49.244;7.726;2023-02-01T20:19:30;17.25;;;3.97;;
58466;SDS011;44255;49.244;7.726;2023-02-01T20:21:56;12.38;;;2.83;;
58466;SDS011;44255;49.244;7.726;2023-02-01T20:24:21;14.75;;;3.10;;
58466;SDS011;44255;49.244;7.726;2023-02-01T20:26:47;13.70;;;3.75;;
58466;SDS011;44255;49.244;7.726;2023-02-01T20:29:13;14.07;;;3.47;;
58466;SDS011;44255;49.244;7.726;2023-02-01T20:31:39;13.75;;;3.28;;
58466;SDS011;44255;49.244;7.726;2023-02-01T20:34:04;18.10;;;3.28;;
58466;SDS011;44255;49.244;7.726;2023-02-01T20:36:30;22.50;;;3.42;;
58466;SDS011;44255;49.244;7.726;2023-02-01T20:38:57;14.15;;;4.03;;
58466;SDS011;44255;49.244;7.726;2023-02-01T20:41:23;17.45;;;3.10;;
58466;SDS011;44255;49.244;7.726;2023-02-01T20:43:54;17.20;;;4.05;;
58466;SDS011;44255;49.244;7.726;2023-02-01T20:46:19;17.90;;;3.90;;
58466;SDS011;44255;49.244;7.726;2023-02-01T20:48:46;15.07;;;3.63;;
58466;SDS011;44255;49.244;7.726;2023-02-01T20:51:13;19.70;;;3.60;;
58466;SDS011;44255;49.244;7.726;2023-02-01T20:53:40;15.50;;;3.63;;
58466;SDS011;44255;49.244;7.726;2023-02-01T20:56:06;14.30;;;4.25;;
58466;SDS011;44255;49.244;7.726;2023-02-01T20:58:32;18.05;;;3.85;;
58466;SDS011;44255;49.244;7.726;2023-02-01T21:00:58;15.85;;;3.58;;
58466;SDS011;44255;49.244;7.726;2023-02-01T21:03:23;16.53;;;3.37;;
58466;SDS011;44255;49.244;7.726;2023-02-01T21:05:50;13.93;;;2.77;;
58466;SDS011;44255;49.244;7.726;2023-02-01T21:08:17;14.63;;;3.60;;
58466;SDS011;44255;49.244;7.726;2023-02-01T21:10:43;14.10;;;3.25;;
58466;SDS011;44255;49.244;7.726;2023-02-01T21:13:09;11.60;;;3.20;;
58466;SDS011;44255;49.244;7.726;2023-02-01T21:15:35;20.65;;;3.63;;
58466;SDS011;44255;49.244;7.726;2023-02-01T21:18:01;15.75;;;4.25;;
58466;SDS011;44255;49.244;7.726;2023-02-01T21:20:27;12.75;;;3.17;;
58466;SDS011;44255;49.244;7.726;2023-02-01T21:22:53;11.00;;;3.47;;
58466;SDS011;44255;49.244;7.726;2023-02-01T21:25:18;14.05;;;3.58;;
58466;SDS011;44255;49.244;7.726;2023-02-01T21:27:44;17.80;;;3.80;;
58466;SDS011;44255;49.244;7.726;2023-02-01T21:30:09;16.38;;;4.07;;
58466;SDS011;44255;49.244;7.726;2023-02-01T21:32:35;15.73;;;2.90;;
58466;SDS011;44255;49.244;7.726;2023-02-01T21:35:00;21.13;;;3.33;;
58466;SDS011;44255;49.244;7.726;2023-02-01T21:37:25;21.70;;;4.63;;